Time;durP1;ratioP1;P1;durP2;ratioP2;P2;SDS_P1;SDS_P2;PMS_P1;PMS_P2;Temp;Humidity;BMP_temperature;BMP_pressure;BME280_temperature;BME280_humidity;BME280_pressure;Samples;Min_cycle;Max_cycle;Signal;HPM_P1;HPM_P2
2021/07/06 00:02:20;;;;;;;3.53;2.97;;;20.00;74.50;;;;;;5047013;28;20115;-81
2021/07/06 00:04:48;;;;;;;4.43;3.30;;;20.10;74.30;;;;;;5046870;28;20025;-79
2021/07/06 00:07:17;;;;;;;5.03;3.03;;;20.10;74.20;;;;;;5047921;28;20028;-80
2021/07/06 00:09:43;;;;;;;4.57;3.10;;;20.10;74.20;;;;;;5046978;28;20036;-80
2021/07/06 00:12:09;;;;;;;4.05;2.97;;;20.10;74.10;;;;;;5047431;28;20041;-80
2021/07/06 00:14:35;;;;;;;3.38;2.78;;;20.10;74.10;;;;;;5048547;28;20025;-80
2021/07/06 00:17:01;;;;;;;3.53;3.00;;;20.10;74.10;;;;;;5048934;28;20091;-78
2021/07/06 00:19:26;;;;;;;7.43;3.33;;;20.10;74.10;;;;;;5047574;28;20075;-80
2021/07/06 00:21:53;;;;;;;5.72;3.53;;;20.00;74.10;;;;;;5047395;28;20037;-80
2021/07/06 00:24:19;;;;;;;4.03;3.10;;;20.00;74.20;;;;;;5047395;28;20025;-80
2021/07/06 00:26:45;;;;;;;3.55;3.13;;;20.00;74.40;;;;;;5048915;28;20048;-79
2021/07/06 00:29:11;;;;;;;3.83;2.90;;;19.90;74.40;;;;;;5047484;28;20469;-80
2021/07/06 00:31:36;;;;;;;3.60;2.80;;;19.90;74.70;;;;;;5046739;28;20036;-78
2021/07/06 00:34:02;;;;;;;3.47;3.03;;;19.90;74.90;;;;;;5048496;28;20078;-79
2021/07/06 00:36:29;;;;;;;3.13;2.60;;;19.80;74.90;;;;;;5046595;28;20059;-77
2021/07/06 00:38:54;;;;;;;4.25;2.80;;;19.80;75.20;;;;;;5048468;28;20037;-79
2021/07/06 00:41:20;;;;;;;3.88;3.28;;;19.80;75.20;;;;;;5046948;28;20037;-79
2021/07/06 00:43:46;;;;;;;4.35;2.47;;;19.80;75.40;;;;;;5047933;28;20025;-79
2021/07/06 00:46:11;;;;;;;4.43;3.00;;;19.70;75.60;;;;;;5045927;28;20536;-77
2021/07/06 00:48:38;;;;;;;5.05;3.08;;;19.70;75.80;;;;;;5047505;28;20124;-78
2021/07/06 00:51:03;;;;;;;3.70;3.22;;;19.60;76.00;;;;;;5047154;28;20041;-82
2021/07/06 00:53:29;;;;;;;3.72;3.35;;;19.50;76.40;;;;;;5048107;28;20067;-81
2021/07/06 00:55:56;;;;;;;4.32;3.60;;;19.50;76.50;;;;;;5047091;28;20043;-81
2021/07/06 00:58:24;;;;;;;5.03;3.28;;;19.40;76.70;;;;;;5046937;28;20029;-80
2021/07/06 01:00:50;;;;;;;4.40;3.03;;;19.40;76.90;;;;;;5048242;28;20025;-80
2021/07/06 01:03:16;;;;;;;4.35;2.83;;;19.40;77.00;;;;;;5048117;28;20070;-80
2021/07/06 01:05:41;;;;;;;4.45;2.78;;;19.40;77.20;;;;;;5051191;28;20417;-81
2021/07/06 01:08:08;;;;;;;6.30;3.30;;;19.40;77.30;;;;;;5051018;28;20032;-82
2021/07/06 01:10:34;;;;;;;4.10;2.83;;;19.30;77.60;;;;;;5052410;28;20063;-80
2021/07/06 01:13:01;;;;;;;5.53;3.05;;;19.30;77.70;;;;;;5050841;28;20041;-78
2021/07/06 01:15:28;;;;;;;4.45;3.42;;;19.30;77.50;;;;;;5050994;28;20112;-79
2021/07/06 01:18:18;;;;;;;6.00;3.35;;;19.30;77.10;;;;;;5051229;28;20495;-77
2021/07/06 01:20:49;;;;;;;4.88;3.33;;;19.30;77.00;;;;;;5043314;28;20068;-81
2021/07/06 01:23:20;;;;;;;12.45;3.67;;;19.30;76.90;;;;;;5050806;28;20524;-78
2021/07/06 01:25:46;;;;;;;5.55;3.65;;;19.30;76.70;;;;;;5050899;28;20441;-80
2021/07/06 01:28:11;;;;;;;4.38;3.47;;;19.30;76.60;;;;;;5051914;28;20033;-78
2021/07/06 01:30:38;;;;;;;7.28;3.30;;;19.40;76.40;;;;;;5051771;28;20035;-79
2021/07/06 01:35:50;;;;;;;5.70;3.67;;;19.50;75.80;;;;;;5062380;28;20559;-78
2021/07/06 01:38:16;;;;;;;4.82;3.65;;;19.50;75.80;;;;;;5053714;28;20539;-80
2021/07/06 01:40:42;;;;;;;4.03;3.63;;;19.50;75.70;;;;;;5053816;28;20118;-79
2021/07/06 01:43:08;;;;;;;3.60;2.90;;;19.60;75.50;;;;;;5053681;28;20481;-77
2021/07/06 01:45:35;;;;;;;4.75;3.35;;;19.60;75.40;;;;;;5071534;28;20056;-79
2021/07/06 01:48:02;;;;;;;5.40;3.38;;;19.60;75.40;;;;;;5053642;28;20025;-80
2021/07/06 01:50:36;;;;;;;8.18;3.40;;;19.60;75.40;;;;;;5071428;28;20056;-77
2021/07/06 01:53:14;;;;;;;4.63;3.20;;;19.60;75.50;;;;;;5052802;28;20040;-79
2021/07/06 01:55:48;;;;;;;4.72;3.53;;;19.50;75.90;;;;;;5071165;28;20032;-79
2021/07/06 01:58:17;;;;;;;4.05;3.35;;;19.50;76.00;;;;;;5053436;28;20495;-80
2021/07/06 02:00:49;;;;;;;5.88;3.38;;;19.50;76.20;;;;;;5053237;28;20060;-80
2021/07/06 02:03:14;;;;;;;6.55;2.90;;;19.40;76.20;;;;;;5053389;28;20111;-79
2021/07/06 02:05:46;;;;;;;5.47;4.30;;;19.40;76.30;;;;;;5053292;28;20478;-78
2021/07/06 02:08:14;;;;;;;5.47;3.22;;;19.50;76.30;;;;;;5053077;28;20087;-81
2021/07/06 02:10:41;;;;;;;4.90;3.10;;;19.50;76.20;;;;;;5052834;28;20024;-79
2021/07/06 02:13:16;;;;;;;4.35;3.50;;;19.50;76.00;;;;;;5053079;28;20044;-78
2021/07/06 02:15:43;;;;;;;3.80;3.00;;;19.50;76.00;;;;;;5070945;28;20493;-79
2021/07/06 02:18:14;;;;;;;4.40;2.97;;;19.50;76.00;;;;;;5053491;28;20028;-79
2021/07/06 02:20:40;;;;;;;7.43;3.50;;;19.60;75.70;;;;;;5065666;28;20040;-79
2021/07/06 02:23:06;;;;;;;4.63;3.13;;;19.60;75.40;;;;;;5033100;28;20060;-78
2021/07/06 02:25:33;;;;;;;5.85;2.65;;;19.60;75.30;;;;;;5033118;28;20539;-79
2021/07/06 02:27:59;;;;;;;4.35;3.28;;;19.60;75.10;;;;;;5032830;28;20064;-80
2021/07/06 02:30:25;;;;;;;3.88;3.15;;;19.70;75.00;;;;;;5051023;28;20104;-79
2021/07/06 02:32:51;;;;;;;4.78;2.92;;;19.60;75.00;;;;;;5050921;28;20520;-77
2021/07/06 02:35:17;;;;;;;4.65;3.47;;;19.60;75.20;;;;;;5050528;28;20075;-80
2021/07/06 02:37:45;;;;;;;7.32;3.25;;;19.60;75.40;;;;;;5033292;28;20057;-80
2021/07/06 02:40:13;;;;;;;3.90;3.20;;;19.60;75.60;;;;;;5033047;28;20060;-81
2021/07/06 02:42:39;;;;;;;3.92;2.95;;;19.50;75.90;;;;;;5050707;28;20061;-77
2021/07/06 02:45:07;;;;;;;3.58;2.58;;;19.50;76.20;;;;;;5032761;28;20110;-80
2021/07/06 02:47:33;;;;;;;3.10;2.47;;;19.40;76.40;;;;;;5032737;28;20025;-81
2021/07/06 02:49:59;;;;;;;5.65;3.17;;;19.40;76.80;;;;;;5032935;28;20072;-79
2021/07/06 02:52:25;;;;;;;10.50;3.88;;;19.30;77.20;;;;;;5032766;28;20567;-81
2021/07/06 02:54:50;;;;;;;6.38;3.70;;;19.20;77.50;;;;;;5032409;28;20017;-78
2021/07/06 02:57:35;;;;;;;3.25;2.78;;;19.10;78.10;;;;;;5032952;28;20064;-81
2021/07/06 03:00:22;;;;;;;10.77;3.63;;;19.00;78.30;;;;;;5032684;28;20040;-79
2021/07/06 03:02:51;;;;;;;5.80;3.45;;;19.00;78.90;;;;;;5033245;28;20501;-81
2021/07/06 03:05:18;;;;;;;6.95;3.25;;;18.90;79.20;;;;;;5033760;28;20055;-84
2021/07/06 03:07:45;;;;;;;4.70;3.40;;;18.90;79.30;;;;;;5033664;28;20070;-85
2021/07/06 03:10:31;;;;;;;7.03;3.35;;;18.90;79.90;;;;;;5033421;28;20025;-82
2021/07/06 03:12:58;;;;;;;3.45;2.90;;;18.80;80.00;;;;;;5051565;28;20037;-83
2021/07/06 03:15:25;;;;;;;7.65;3.25;;;18.80;80.00;;;;;;5051493;28;20072;-84
2021/07/06 03:17:52;;;;;;;3.88;2.88;;;18.80;79.90;;;;;;5033634;28;20063;-83
2021/07/06 03:20:19;;;;;;;9.45;4.22;;;18.80;79.90;;;;;;5051122;28;20489;-84
2021/07/06 03:22:46;;;;;;;3.75;2.80;;;18.90;80.10;;;;;;5033300;28;20024;-83
2021/07/06 03:25:14;;;;;;;6.90;3.97;;;18.90;79.70;;;;;;5050221;28;20032;-84
2021/07/06 03:27:40;;;;;;;5.30;3.13;;;19.00;79.60;;;;;;5049334;28;20106;-82
2021/07/06 03:30:08;;;;;;;4.28;3.42;;;19.00;79.10;;;;;;5049948;28;20501;-84
2021/07/06 03:32:34;;;;;;;4.22;2.92;;;19.10;79.60;;;;;;5049261;28;20401;-84
2021/07/06 03:35:01;;;;;;;4.43;3.30;;;19.10;79.40;;;;;;5049148;28;20052;-83
2021/07/06 03:37:27;;;;;;;5.13;3.53;;;19.10;80.10;;;;;;5049678;28;20040;-84
2021/07/06 03:39:53;;;;;;;4.25;3.05;;;19.10;79.60;;;;;;5050748;28;20115;-83
2021/07/06 03:42:19;;;;;;;3.92;2.88;;;19.10;79.30;;;;;;5049544;28;20191;-82
2021/07/06 03:44:44;;;;;;;6.38;3.40;;;19.20;79.20;;;;;;5049692;28;20025;-84
2021/07/06 03:47:10;;;;;;;6.03;3.17;;;19.20;79.10;;;;;;5050685;28;20511;-84
2021/07/06 03:49:36;;;;;;;8.45;2.97;;;19.30;79.10;;;;;;5049366;28;20029;-82
2021/07/06 03:52:02;;;;;;;5.60;3.30;;;19.40;78.80;;;;;;5049185;28;20411;-85
2021/07/06 03:54:28;;;;;;;4.57;2.85;;;19.50;79.50;;;;;;5048772;28;20017;-84
2021/07/06 03:56:53;;;;;;;7.30;2.80;;;19.60;78.90;;;;;;5048960;28;20409;-83
2021/07/06 03:59:19;;;;;;;7.15;2.83;;;19.70;78.40;;;;;;5047617;28;20024;-83
2021/07/06 04:01:45;;;;;;;5.43;2.60;;;19.90;77.80;;;;;;5047612;28;20025;-83
2021/07/06 04:04:10;;;;;;;5.70;2.60;;;20.10;76.90;;;;;;5048618;28;20098;-83
2021/07/06 04:06:36;;;;;;;9.38;3.42;;;20.30;75.80;;;;;;5048843;28;20474;-81
2021/07/06 04:09:03;;;;;;;5.03;3.00;;;20.70;74.70;;;;;;5051764;28;20047;-82
2021/07/06 04:11:28;;;;;;;4.97;3.05;;;20.90;73.60;;;;;;5052275;28;20039;-82
2021/07/06 04:13:54;;;;;;;6.65;3.20;;;21.30;72.30;;;;;;5052449;28;20024;-83
2021/07/06 04:16:19;;;;;;;7.82;4.32;;;21.60;71.00;;;;;;5052240;28;20498;-84
2021/07/06 04:18:45;;;;;;;4.47;2.75;;;21.80;70.20;;;;;;5052138;28;20485;-80
2021/07/06 04:21:11;;;;;;;2.67;2.38;;;21.90;69.60;;;;;;5052076;28;20759;-83
2021/07/06 04:23:39;;;;;;;11.88;3.05;;;22.00;68.90;;;;;;5051521;28;20028;-82
2021/07/06 04:26:06;;;;;;;6.82;3.08;;;22.00;68.50;;;;;;5051013;28;20028;-83
2021/07/06 04:28:32;;;;;;;6.97;3.38;;;22.10;68.40;;;;;;5050845;28;20493;-81
2021/07/06 04:30:59;;;;;;;4.57;3.03;;;22.20;69.10;;;;;;5051024;28;20028;-83
2021/07/06 04:33:24;;;;;;;5.03;2.90;;;22.30;69.10;;;;;;5050947;28;20040;-82
2021/07/06 04:35:50;;;;;;;7.50;3.30;;;22.50;68.30;;;;;;5046763;28;20128;-82
2021/07/06 04:38:16;;;;;;;5.20;3.55;;;22.60;68.80;;;;;;5050176;28;20024;-82
2021/07/06 04:40:41;;;;;;;6.43;4.18;;;22.60;68.60;;;;;;5051468;28;20024;-83
2021/07/06 04:43:07;;;;;;;13.65;3.65;;;22.70;68.60;;;;;;5051469;28;20127;-83
2021/07/06 04:45:34;;;;;;;9.00;3.55;;;22.80;68.70;;;;;;5069248;28;20137;-82
2021/07/06 04:48:00;;;;;;;6.90;3.75;;;22.70;68.50;;;;;;5051687;28;20025;-83
2021/07/06 04:50:26;;;;;;;16.58;4.80;;;22.70;67.90;;;;;;5048116;28;20562;-83
2021/07/06 04:52:52;;;;;;;5.57;3.38;;;22.70;67.90;;;;;;5048261;28;20045;-80
2021/07/06 04:55:19;;;;;;;11.05;3.42;;;22.70;67.50;;;;;;5048007;28;20039;-81
2021/07/06 04:57:46;;;;;;;5.80;3.30;;;22.80;67.60;;;;;;5048128;28;20139;-83
2021/07/06 05:00:13;;;;;;;5.95;3.33;;;23.00;67.10;;;;;;5048662;28;20033;-81
2021/07/06 05:02:40;;;;;;;5.75;3.47;;;23.10;66.40;;;;;;5031656;28;20029;-83
2021/07/06 05:05:06;;;;;;;8.90;3.78;;;23.30;65.70;;;;;;5031881;28;20052;-83
2021/07/06 05:07:36;;;;;;;6.53;4.55;;;23.40;64.90;;;;;;5032283;28;20557;-83
2021/07/06 05:10:04;;;;;;;7.15;3.38;;;23.60;64.60;;;;;;5032604;28;20033;-82
2021/07/06 05:12:30;;;;;;;9.30;3.17;;;23.80;64.20;;;;;;5049639;28;20033;-83
2021/07/06 05:14:55;;;;;;;5.90;3.58;;;23.90;63.90;;;;;;5031570;28;20048;-81
2021/07/06 05:17:21;;;;;;;8.73;3.47;;;24.10;63.50;;;;;;5049817;28;20116;-83
2021/07/06 05:19:47;;;;;;;7.75;3.70;;;24.20;63.20;;;;;;5031760;28;20135;-84
2021/07/06 05:22:12;;;;;;;5.72;3.20;;;24.30;63.60;;;;;;5031986;28;20033;-83
2021/07/06 05:24:38;;;;;;;4.43;3.50;;;24.50;63.40;;;;;;5032075;28;20025;-83
2021/07/06 05:27:04;;;;;;;8.82;3.63;;;24.60;62.50;;;;;;5049820;28;20032;-83
2021/07/06 05:29:30;;;;;;;5.88;3.55;;;24.70;62.10;;;;;;5031808;28;20025;-83
2021/07/06 05:31:55;;;;;;;7.20;5.03;;;24.80;61.90;;;;;;5031666;28;20123;-83
2021/07/06 05:34:21;;;;;;;8.68;3.30;;;24.90;61.70;;;;;;5049598;28;20033;-83
2021/07/06 05:36:48;;;;;;;6.10;3.63;;;25.00;61.40;;;;;;5027832;28;20045;-83
2021/07/06 05:39:14;;;;;;;9.25;3.55;;;25.10;61.20;;;;;;5028037;28;20036;-83
2021/07/06 05:41:39;;;;;;;9.48;3.35;;;25.20;60.70;;;;;;5028224;28;20033;-83
2021/07/06 05:44:07;;;;;;;6.95;3.90;;;25.30;59.80;;;;;;5028228;28;20072;-83
2021/07/06 05:46:32;;;;;;;6.40;3.50;;;25.50;59.70;;;;;;5028207;28;20033;-82
2021/07/06 05:48:58;;;;;;;11.38;3.30;;;25.60;59.10;;;;;;5028781;28;20425;-81
2021/07/06 05:51:24;;;;;;;7.38;3.28;;;26.10;59.00;;;;;;5031540;28;20045;-83
2021/07/06 05:53:50;;;;;;;9.95;3.50;;;26.50;57.90;;;;;;5032370;28;20064;-83
2021/07/06 05:56:17;;;;;;;6.97;3.72;;;26.90;55.90;;;;;;5032424;28;20057;-84
2021/07/06 05:58:43;;;;;;;9.75;3.60;;;27.70;53.20;;;;;;5034011;28;20025;-83
2021/07/06 06:01:08;;;;;;;8.57;3.30;;;28.80;50.20;;;;;;5032194;28;20452;-83
2021/07/06 06:03:34;;;;;;;7.15;3.03;;;29.90;47.50;;;;;;5032168;28;20079;-85
2021/07/06 06:06:01;;;;;;;8.27;3.47;;;31.20;45.00;;;;;;5032086;28;20025;-84
2021/07/06 06:08:26;;;;;;;6.00;2.90;;;32.40;41.60;;;;;;5033644;28;20102;-85
2021/07/06 06:10:52;;;;;;;13.95;3.58;;;33.50;39.40;;;;;;5032475;28;20485;-85
2021/07/06 06:13:18;;;;;;;9.15;3.95;;;34.50;37.80;;;;;;5032208;28;20045;-85
2021/07/06 06:15:43;;;;;;;12.57;3.78;;;35.40;35.60;;;;;;5032038;28;20037;-83
2021/07/06 06:18:09;;;;;;;4.88;3.28;;;35.80;34.30;;;;;;5032216;28;20037;-86
2021/07/06 06:20:35;;;;;;;6.97;3.63;;;36.20;33.80;;;;;;5032402;28;20029;-86
2021/07/06 06:23:01;;;;;;;16.48;3.60;;;36.80;32.90;;;;;;5032098;28;20033;-86
2021/07/06 06:25:27;;;;;;;12.82;3.55;;;37.30;32.00;;;;;;5033227;28;20028;-85
2021/07/06 06:27:53;;;;;;;9.48;3.15;;;37.30;31.90;;;;;;5032179;28;20041;-84
2021/07/06 06:30:19;;;;;;;7.55;3.55;;;37.60;31.50;;;;;;5031835;28;20018;-82
2021/07/06 06:32:45;;;;;;;10.05;3.67;;;37.50;31.60;;;;;;5032772;28;20047;-85
2021/07/06 06:35:12;;;;;;;7.18;3.13;;;37.80;31.30;;;;;;5031274;28;20490;-85
2021/07/06 06:37:38;;;;;;;4.38;3.38;;;37.80;31.30;;;;;;5031677;28;20529;-85
2021/07/06 06:40:05;;;;;;;8.27;3.40;;;37.60;31.20;;;;;;5031662;28;20112;-86
2021/07/06 06:42:30;;;;;;;56.38;7.88;;;38.00;30.80;;;;;;5033016;28;20067;-85
2021/07/06 06:44:56;;;;;;;46.47;4.93;;;38.00;30.40;;;;;;5031707;28;20056;-84
2021/07/06 06:47:21;;;;;;;257.88;19.17;;;38.30;30.40;;;;;;5032377;28;20041;-84
2021/07/06 06:49:47;;;;;;;16.83;3.45;;;38.30;30.80;;;;;;5031477;28;20035;-86
2021/07/06 06:52:13;;;;;;;10.00;3.47;;;38.40;30.40;;;;;;5031058;28;20037;-84
2021/07/06 06:54:38;;;;;;;15.25;3.33;;;37.80;30.60;;;;;;5032072;28;20025;-83
2021/07/06 06:57:05;;;;;;;6.35;3.80;;;38.10;30.70;;;;;;5032780;28;20474;-83
2021/07/06 06:59:30;;;;;;;8.52;3.53;;;38.50;30.40;;;;;;5030979;28;20033;-85
2021/07/06 07:04:40;;;;;;;5.90;3.30;;;38.70;30.00;;;;;;5032686;28;20033;-85
2021/07/06 07:07:06;;;;;;;5.43;3.70;;;38.80;29.80;;;;;;5032278;28;20041;-85
2021/07/06 07:09:31;;;;;;;4.32;3.60;;;38.60;30.10;;;;;;5031239;28;20163;-86
2021/07/06 07:11:57;;;;;;;5.28;3.85;;;38.70;29.90;;;;;;5030936;28;20068;-84
2021/07/06 07:14:22;;;;;;;6.55;3.50;;;38.50;30.10;;;;;;5030713;28;20029;-85
2021/07/06 07:16:50;;;;;;;5.15;3.60;;;38.40;30.40;;;;;;5031975;28;20538;-85
2021/07/06 07:19:16;;;;;;;5.30;3.55;;;38.50;30.10;;;;;;5031959;28;20032;-86
2021/07/06 07:21:42;;;;;;;8.80;3.75;;;38.80;29.80;;;;;;5030558;28;20120;-86
2021/07/06 07:24:07;;;;;;;9.98;4.50;;;39.30;29.40;;;;;;5030622;28;20103;-86
2021/07/06 07:26:33;;;;;;;5.10;3.90;;;39.40;29.40;;;;;;5030513;28;20112;-84
2021/07/06 07:28:59;;;;;;;5.75;4.10;;;39.00;29.20;;;;;;5030455;28;20021;-86
2021/07/06 07:31:24;;;;;;;8.13;4.22;;;38.30;30.30;;;;;;5030301;28;20072;-84
2021/07/06 07:33:50;;;;;;;8.80;3.63;;;38.40;30.00;;;;;;5030371;28;20387;-85
2021/07/06 07:36:15;;;;;;;12.52;4.15;;;38.20;30.50;;;;;;5030428;28;20108;-86
2021/07/06 07:38:41;;;;;;;5.15;3.97;;;38.20;30.80;;;;;;5030080;28;20120;-84
2021/07/06 07:41:07;;;;;;;8.70;3.80;;;38.30;30.50;;;;;;5030518;28;20072;-84
2021/07/06 07:43:32;;;;;;;6.15;4.00;;;38.20;30.80;;;;;;5030531;28;20029;-86
2021/07/06 07:45:58;;;;;;;5.35;3.85;;;37.50;30.50;;;;;;5030109;28;20417;-84
2021/07/06 07:48:24;;;;;;;5.45;3.85;;;37.10;31.60;;;;;;5030200;28;20117;-83
2021/07/06 07:50:50;;;;;;;9.63;3.92;;;37.00;32.00;;;;;;5030064;28;20052;-85
2021/07/06 07:53:15;;;;;;;8.98;4.20;;;36.90;31.70;;;;;;5029385;28;20064;-85
2021/07/06 07:55:41;;;;;;;6.47;3.97;;;36.90;32.20;;;;;;5029826;28;20036;-85
2021/07/06 07:58:07;;;;;;;11.25;4.30;;;37.10;32.40;;;;;;5031293;28;20387;-84
2021/07/06 08:00:32;;;;;;;9.23;4.53;;;37.40;32.50;;;;;;5028489;28;20026;-84
2021/07/06 08:02:59;;;;;;;7.78;4.28;;;37.20;32.60;;;;;;5028510;28;20091;-85
2021/07/06 08:05:26;;;;;;;5.45;3.92;;;36.90;33.10;;;;;;5030719;28;20021;-84
2021/07/06 08:07:52;;;;;;;7.30;4.05;;;36.60;33.00;;;;;;5030456;28;20037;-84
2021/07/06 08:10:18;;;;;;;15.20;3.95;;;36.50;33.20;;;;;;5029308;28;20029;-83
2021/07/06 08:12:43;;;;;;;7.45;4.60;;;36.30;33.30;;;;;;5028925;28;20128;-83
2021/07/06 08:15:09;;;;;;;5.47;4.55;;;36.20;34.50;;;;;;5029313;28;20029;-83
2021/07/06 08:17:35;;;;;;;7.90;4.28;;;36.30;34.30;;;;;;5030752;28;20041;-85
2021/07/06 08:20:01;;;;;;;4.93;3.90;;;36.40;34.60;;;;;;5030295;28;20026;-83
2021/07/06 08:22:27;;;;;;;9.50;5.10;;;36.60;33.40;;;;;;5029233;28;20055;-83
2021/07/06 08:24:53;;;;;;;8.23;4.47;;;36.50;34.30;;;;;;5028865;28;20490;-83
2021/07/06 08:27:19;;;;;;;8.43;4.40;;;36.60;33.90;;;;;;5029101;28;20053;-84
2021/07/06 08:29:45;;;;;;;12.27;4.10;;;36.80;33.70;;;;;;5028996;28;20060;-84
2021/07/06 08:32:10;;;;;;;8.40;4.30;;;37.00;33.60;;;;;;5028775;28;20045;-84
2021/07/06 08:34:36;;;;;;;9.45;4.25;;;37.30;33.30;;;;;;5030669;28;20133;-85
2021/07/06 08:37:02;;;;;;;9.05;4.07;;;37.40;32.80;;;;;;5032317;28;20086;-84
2021/07/06 08:39:28;;;;;;;12.15;3.78;;;37.30;32.50;;;;;;5032680;28;20032;-84
2021/07/06 08:41:54;;;;;;;14.13;3.92;;;37.50;32.60;;;;;;5032222;28;20528;-84
2021/07/06 08:44:21;;;;;;;4.50;3.80;;;37.60;32.90;;;;;;5032349;28;20044;-84
2021/07/06 08:46:49;;;;;;;6.28;3.90;;;37.70;33.50;;;;;;5032077;28;20115;-83
2021/07/06 08:49:18;;;;;;;6.82;3.40;;;37.80;32.50;;;;;;5031955;28;20024;-84
2021/07/06 08:51:48;;;;;;;8.63;3.58;;;38.30;31.70;;;;;;5032197;28;20025;-84
2021/07/06 08:54:13;;;;;;;7.47;3.85;;;38.60;31.10;;;;;;5032417;28;20508;-84
2021/07/06 08:56:39;;;;;;;6.82;3.65;;;38.90;30.90;;;;;;5032277;28;20443;-85
2021/07/06 08:59:05;;;;;;;9.38;5.38;;;38.70;32.00;;;;;;5031943;28;20656;-84
2021/07/06 09:01:30;;;;;;;10.48;4.97;;;38.70;30.60;;;;;;5031966;28;20405;-81
2021/07/06 09:04:02;;;;;;;9.27;4.32;;;38.60;30.10;;;;;;5031883;28;20025;-84
2021/07/06 09:06:30;;;;;;;11.40;4.30;;;38.10;29.90;;;;;;5031675;28;20569;-85
2021/07/06 09:09:15;;;;;;;13.38;4.72;;;37.60;31.40;;;;;;5032280;28;20044;-84
2021/07/06 09:11:46;;;;;;;9.68;4.70;;;37.60;31.80;;;;;;5031600;28;20075;-85
2021/07/06 09:14:12;;;;;;;12.65;4.20;;;37.80;32.20;;;;;;5031964;28;20033;-83
2021/07/06 09:16:38;;;;;;;4.13;3.67;;;37.90;31.70;;;;;;5031507;28;20039;-84
2021/07/06 09:19:24;;;;;;;9.52;4.00;;;37.80;31.60;;;;;;5031459;28;20397;-84
2021/07/06 09:22:12;;;;;;;4.00;3.50;;;37.70;32.60;;;;;;5031478;28;20029;-83
2021/07/06 09:24:38;;;;;;;12.95;4.20;;;38.30;31.70;;;;;;5051040;28;20032;-83
2021/07/06 09:27:27;;;;;;;17.10;3.72;;;38.70;31.20;;;;;;5053882;28;20025;-83
2021/07/06 09:30:16;;;;;;;14.20;3.92;;;39.00;31.10;;;;;;5035665;28;20113;-84
2021/07/06 09:32:49;;;;;;;12.98;3.65;;;38.50;30.40;;;;;;5035576;28;20037;-85
2021/07/06 09:35:25;;;;;;;7.90;3.90;;;37.80;31.70;;;;;;5034996;28;20053;-76
2021/07/06 09:37:56;;;;;;;8.20;3.97;;;37.80;31.50;;;;;;5051892;28;20035;-79
2021/07/06 09:40:36;;;;;;;6.07;3.65;;;37.90;31.50;;;;;;5051887;28;20033;-80
2021/07/06 09:43:17;;;;;;;4.95;3.28;;;38.40;30.70;;;;;;5059926;28;20796;-79
2021/07/06 09:46:08;;;;;;;10.88;4.03;;;38.20;31.10;;;;;;5053551;28;20062;-78
2021/07/06 09:48:37;;;;;;;6.82;3.10;;;37.70;32.40;;;;;;5051301;28;20113;-79
2021/07/06 09:51:19;;;;;;;7.50;5.47;;;37.10;32.10;;;;;;5050234;28;20027;-78
2021/07/06 09:53:50;;;;;;;5.07;3.83;;;36.30;33.50;;;;;;5051526;28;20037;-79
2021/07/06 09:56:22;;;;;;;4.68;3.67;;;36.10;33.80;;;;;;5051498;28;20091;-79
2021/07/06 09:59:05;;;;;;;5.30;3.90;;;36.40;34.10;;;;;;5051573;28;20021;-79
2021/07/06 10:01:31;;;;;;;4.10;3.50;;;37.10;33.40;;;;;;5050154;28;20052;-79
2021/07/06 10:03:58;;;;;;;5.75;3.75;;;37.60;32.60;;;;;;5032595;28;20037;-79
2021/07/06 10:06:30;;;;;;;5.05;3.88;;;37.80;31.60;;;;;;5032932;28;20028;-79
2021/07/06 10:08:56;;;;;;;5.38;3.42;;;37.80;32.60;;;;;;5051368;28;20524;-79
2021/07/06 10:11:24;;;;;;;4.30;3.22;;;37.60;32.10;;;;;;5051209;28;20040;-79
2021/07/06 10:13:50;;;;;;;6.28;3.75;;;37.20;32.00;;;;;;5051212;28;20068;-78
2021/07/06 10:16:17;;;;;;;6.60;3.33;;;36.90;31.20;;;;;;5049698;28;20060;-78
2021/07/06 10:18:44;;;;;;;9.65;3.53;;;36.50;31.30;;;;;;5048860;28;20033;-79
2021/07/06 10:21:10;;;;;;;6.78;3.97;;;36.30;32.40;;;;;;5048767;28;20031;-79
2021/07/06 10:23:38;;;;;;;8.55;4.10;;;36.00;31.50;;;;;;5049861;28;20021;-78
2021/07/06 10:26:06;;;;;;;5.90;3.40;;;35.30;31.90;;;;;;5049837;28;20056;-78
2021/07/06 10:28:33;;;;;;;4.30;3.60;;;34.70;32.80;;;;;;5064939;28;20021;-78
2021/07/06 10:31:17;;;;;;;7.55;3.15;;;34.30;34.00;;;;;;5051992;28;20040;-79
2021/07/06 10:33:44;;;;;;;5.72;2.80;;;34.00;34.50;;;;;;5069677;28;20040;-79
2021/07/06 10:36:14;;;;;;;7.38;3.38;;;34.00;34.60;;;;;;5068006;28;20071;-76
2021/07/06 10:38:43;;;;;;;3.58;2.72;;;34.10;34.00;;;;;;5069573;28;20024;-78
2021/07/06 10:41:13;;;;;;;7.13;3.25;;;34.10;34.20;;;;;;5069574;28;20028;-79
2021/07/06 10:43:42;;;;;;;3.80;3.30;;;34.20;34.30;;;;;;5069753;28;20029;-79
2021/07/06 10:46:20;;;;;;;12.57;3.22;;;34.30;34.40;;;;;;5051405;28;20063;-79
2021/07/06 10:49:03;;;;;;;3.45;2.50;;;34.40;33.70;;;;;;5057197;28;20021;-78
2021/07/06 10:51:34;;;;;;;4.63;3.17;;;34.30;33.00;;;;;;5049521;28;20563;-79
2021/07/06 10:54:16;;;;;;;3.28;2.92;;;34.20;33.50;;;;;;5055717;28;20035;-79
2021/07/06 10:56:57;;;;;;;4.78;2.78;;;34.20;33.90;;;;;;5035823;28;20033;-79
2021/07/06 10:59:31;;;;;;;3.70;2.45;;;34.20;32.20;;;;;;5052520;28;20033;-79
2021/07/06 11:01:59;;;;;;;4.05;3.17;;;33.90;32.40;;;;;;5064012;28;20029;-78
2021/07/06 11:04:37;;;;;;;4.20;2.55;;;33.60;33.10;;;;;;5051679;28;20086;-79
2021/07/06 11:07:04;;;;;;;7.28;2.83;;;33.50;33.40;;;;;;5051347;28;20436;-79
2021/07/06 11:09:29;;;;;;;4.53;2.88;;;33.30;32.80;;;;;;5069121;28;20516;-78
2021/07/06 11:12:24;;;;;;;3.35;2.58;;;33.30;33.80;;;;;;5069877;28;20033;-79
2021/07/06 11:14:55;;;;;;;3.72;2.92;;;33.40;33.00;;;;;;5069484;28;20062;-75
2021/07/06 11:17:39;;;;;;;9.32;3.45;;;33.30;33.70;;;;;;5052309;28;20029;-77
2021/07/06 11:20:12;;;;;;;9.15;2.63;;;33.20;34.20;;;;;;5070043;28;20082;-79
2021/07/06 11:22:44;;;;;;;6.03;2.58;;;32.80;33.60;;;;;;5069943;28;20024;-80
2021/07/06 11:25:22;;;;;;;5.45;3.22;;;32.70;34.40;;;;;;5068582;28;20442;-80
2021/07/06 11:27:59;;;;;;;6.70;2.15;;;32.50;34.40;;;;;;5069901;28;20102;-79
2021/07/06 11:30:30;;;;;;;3.67;2.30;;;32.60;34.70;;;;;;5069699;28;20025;-79
2021/07/06 11:33:07;;;;;;;7.03;2.67;;;32.70;34.40;;;;;;5069590;28;20116;-79
2021/07/06 11:35:36;;;;;;;7.15;3.42;;;33.20;34.90;;;;;;5051602;28;20056;-79
2021/07/06 11:38:08;;;;;;;4.13;2.55;;;33.10;35.30;;;;;;5051449;28;20051;-79
2021/07/06 11:40:36;;;;;;;5.25;3.17;;;32.90;35.50;;;;;;5051502;28;20405;-79
2021/07/06 11:43:02;;;;;;;6.05;3.05;;;32.90;36.90;;;;;;5069497;28;20063;-79
2021/07/06 11:45:28;;;;;;;5.13;2.65;;;32.90;35.90;;;;;;5069460;28;20067;-80
2021/07/06 11:48:09;;;;;;;9.88;2.88;;;32.80;35.80;;;;;;5050468;28;20036;-79
2021/07/06 11:50:35;;;;;;;3.72;3.33;;;32.90;36.00;;;;;;5051273;28;20020;-79
2021/07/06 11:53:03;;;;;;;3.83;2.65;;;32.80;36.00;;;;;;5051182;28;20097;-79
2021/07/06 11:55:30;;;;;;;8.25;2.83;;;32.60;35.80;;;;;;5069214;28;20560;-78
2021/07/06 11:57:58;;;;;;;3.78;2.97;;;32.30;35.90;;;;;;5069337;28;20037;-79
2021/07/06 12:00:26;;;;;;;7.53;3.20;;;32.00;36.50;;;;;;5051397;28;20596;-79
2021/07/06 12:03:11;;;;;;;4.00;3.50;;;31.80;37.60;;;;;;5050627;28;20043;-80
2021/07/06 12:05:37;;;;;;;4.60;2.85;;;32.10;37.80;;;;;;5068950;28;20103;-79
2021/07/06 12:08:23;;;;;;;5.80;2.78;;;32.50;37.80;;;;;;5051122;28;20361;-77
2021/07/06 12:10:53;;;;;;;7.43;2.83;;;32.80;35.90;;;;;;5051122;28;20493;-75
2021/07/06 12:13:19;;;;;;;4.28;2.63;;;32.90;35.60;;;;;;5051059;28;20438;-77
2021/07/06 12:15:46;;;;;;;5.97;2.95;;;33.20;35.40;;;;;;5068981;28;20036;-77
2021/07/06 12:18:12;;;;;;;3.92;3.50;;;33.30;34.90;;;;;;5050653;28;20033;-76
2021/07/06 12:20:37;;;;;;;6.35;2.80;;;33.40;33.60;;;;;;5050839;28;20397;-76
2021/07/06 12:23:03;;;;;;;5.18;2.75;;;33.20;34.10;;;;;;5069042;28;20037;-79
2021/07/06 12:25:29;;;;;;;3.28;2.97;;;33.10;34.20;;;;;;5068991;28;20436;-80
2021/07/06 12:27:56;;;;;;;4.20;2.63;;;33.10;34.90;;;;;;5050632;28;20024;-79
2021/07/06 12:30:22;;;;;;;3.92;2.38;;;33.30;34.70;;;;;;5068580;28;20557;-79
2021/07/06 12:33:07;;;;;;;6.60;2.53;;;33.50;33.20;;;;;;5050639;28;20079;-77
2021/07/06 12:35:33;;;;;;;3.37;3.07;;;33.40;32.90;;;;;;5067689;28;20424;-78
2021/07/06 12:38:06;;;;;;;3.10;2.80;;;33.40;33.60;;;;;;5068600;28;20315;-77
2021/07/06 12:40:32;;;;;;;4.93;2.40;;;33.60;33.90;;;;;;5050563;28;20051;-77
2021/07/06 12:42:58;;;;;;;4.53;2.80;;;33.70;33.40;;;;;;5068614;28;20494;-76
2021/07/06 12:45:35;;;;;;;2.75;2.50;;;33.70;33.70;;;;;;5049276;28;20032;-77
2021/07/06 12:48:01;;;;;;;6.38;2.75;;;33.90;33.40;;;;;;5068366;28;20020;-77
2021/07/06 12:50:27;;;;;;;5.80;2.60;;;34.20;33.40;;;;;;5050704;28;20284;-77
2021/07/06 12:52:54;;;;;;;3.53;2.75;;;34.30;33.50;;;;;;5050429;28;20440;-77
2021/07/06 12:55:22;;;;;;;7.53;3.03;;;34.00;32.70;;;;;;5050398;28;20086;-77
2021/07/06 12:57:51;;;;;;;5.90;2.88;;;33.90;33.30;;;;;;5068259;28;20063;-77